sensor_id;sensor_type;location;lat;lon;timestamp;P1;durP1;ratioP1;P2;durP2;ratioP2
11245;SDS011;59870;50.106;8.580;2022-11-15T00:01:56;13.53;;;12.33;;
11245;SDS011;59870;50.106;8.580;2022-11-15T00:04:42;11.87;;;10.77;;
11245;SDS011;59870;50.106;8.580;2022-11-15T00:07:29;12.80;;;11.67;;
11245;SDS011;59870;50.106;8.580;2022-11-15T00:10:35;12.80;;;11.57;;
11245;SDS011;59870;50.106;8.580;2022-11-15T00:13:22;14.30;;;13.03;;
11245;SDS011;59870;50.106;8.580;2022-11-15T00:16:08;13.00;;;11.87;;
11245;SDS011;59870;50.106;8.580;2022-11-15T00:18:55;13.23;;;12.07;;
11245;SDS011;59870;50.106;8.580;2022-11-15T00:21:42;12.47;;;11.47;;
11245;SDS011;59870;50.106;8.580;2022-11-15T00:24:29;13.83;;;12.63;;
11245;SDS011;59870;50.106;8.580;2022-11-15T00:27:15;13.33;;;12.13;;
11245;SDS011;59870;50.106;8.580;2022-11-15T00:30:01;12.77;;;11.73;;
11245;SDS011;59870;50.106;8.580;2022-11-15T00:32:47;13.23;;;12.13;;
11245;SDS011;59870;50.106;8.580;2022-11-15T00:35:33;14.60;;;12.37;;
11245;SDS011;59870;50.106;8.580;2022-11-15T00:38:20;12.97;;;11.73;;
11245;SDS011;59870;50.106;8.580;2022-11-15T00:41:06;12.77;;;11.83;;
11245;SDS011;59870;50.106;8.580;2022-11-15T00:43:54;13.40;;;12.10;;
11245;SDS011;59870;50.106;8.580;2022-11-15T00:46:40;13.77;;;11.40;;
11245;SDS011;59870;50.106;8.580;2022-11-15T00:49:27;13.40;;;12.10;;
11245;SDS011;59870;50.106;8.580;2022-11-15T00:52:13;13.53;;;12.43;;
11245;SDS011;59870;50.106;8.580;2022-11-15T00:54:59;14.57;;;13.10;;
11245;SDS011;59870;50.106;8.580;2022-11-15T00:57:46;17.93;;;15.67;;
11245;SDS011;59870;50.106;8.580;2022-11-15T01:00:32;21.70;;;18.03;;
11245;SDS011;59870;50.106;8.580;2022-11-15T01:03:18;19.20;;;16.97;;
11245;SDS011;59870;50.106;8.580;2022-11-15T01:06:05;17.60;;;13.77;;
11245;SDS011;59870;50.106;8.580;2022-11-15T01:08:52;14.77;;;13.47;;
11245;SDS011;59870;50.106;8.580;2022-11-15T01:11:38;14.80;;;13.50;;
11245;SDS011;59870;50.106;8.580;2022-11-15T01:14:24;14.93;;;13.37;;
11245;SDS011;59870;50.106;8.580;2022-11-15T01:17:10;13.63;;;12.43;;
11245;SDS011;59870;50.106;8.580;2022-11-15T01:19:56;12.87;;;11.67;;
11245;SDS011;59870;50.106;8.580;2022-11-15T01:22:42;17.50;;;12.30;;
11245;SDS011;59870;50.106;8.580;2022-11-15T01:25:28;12.50;;;11.50;;
11245;SDS011;59870;50.106;8.580;2022-11-15T01:28:15;12.63;;;11.60;;
11245;SDS011;59870;50.106;8.580;2022-11-15T01:31:01;13.73;;;12.37;;
11245;SDS011;59870;50.106;8.580;2022-11-15T01:33:48;13.33;;;12.13;;
11245;SDS011;59870;50.106;8.580;2022-11-15T01:36:34;12.90;;;11.60;;
11245;SDS011;59870;50.106;8.580;2022-11-15T01:39:20;13.27;;;11.07;;
11245;SDS011;59870;50.106;8.580;2022-11-15T01:42:09;13.77;;;11.80;;
11245;SDS011;59870;50.106;8.580;2022-11-15T01:44:58;12.80;;;11.57;;
11245;SDS011;59870;50.106;8.580;2022-11-15T01:47:48;12.40;;;11.37;;
11245;SDS011;59870;50.106;8.580;2022-11-15T01:50:38;12.60;;;11.57;;
11245;SDS011;59870;50.106;8.580;2022-11-15T01:53:24;11.60;;;10.60;;
11245;SDS011;59870;50.106;8.580;2022-11-15T01:56:13;11.53;;;10.53;;
11245;SDS011;59870;50.106;8.580;2022-11-15T01:59:06;11.40;;;10.50;;
11245;SDS011;59870;50.106;8.580;2022-11-15T02:01:54;11.20;;;10.20;;
11245;SDS011;59870;50.106;8.580;2022-11-15T02:04:45;11.33;;;10.30;;
11245;SDS011;59870;50.106;8.580;2022-11-15T02:07:34;11.20;;;10.30;;
11245;SDS011;59870;50.106;8.580;2022-11-15T02:10:21;10.83;;;9.87;;
11245;SDS011;59870;50.106;8.580;2022-11-15T02:13:09;12.37;;;11.20;;
11245;SDS011;59870;50.106;8.580;2022-11-15T02:15:59;16.77;;;11.80;;
11245;SDS011;59870;50.106;8.580;2022-11-15T02:19:13;13.83;;;12.57;;
11245;SDS011;59870;50.106;8.580;2022-11-15T02:28:34;12.63;;;11.33;;
11245;SDS011;59870;50.106;8.580;2022-11-15T02:34:56;12.07;;;11.07;;
11245;SDS011;59870;50.106;8.580;2022-11-15T02:37:55;11.73;;;10.77;;
11245;SDS011;59870;50.106;8.580;2022-11-15T02:40:57;11.83;;;10.67;;
11245;SDS011;59870;50.106;8.580;2022-11-15T02:43:54;10.87;;;10.07;;
11245;SDS011;59870;50.106;8.580;2022-11-15T02:46:49;11.13;;;10.17;;
11245;SDS011;59870;50.106;8.580;2022-11-15T02:49:56;11.60;;;10.70;;
11245;SDS011;59870;50.106;8.580;2022-11-15T02:52:47;10.30;;;9.60;;
11245;SDS011;59870;50.106;8.580;2022-11-15T02:55:35;15.80;;;11.23;;
11245;SDS011;59870;50.106;8.580;2022-11-15T02:58:32;12.17;;;11.20;;
11245;SDS011;59870;50.106;8.580;2022-11-15T03:04:43;18.97;;;13.53;;
11245;SDS011;59870;50.106;8.580;2022-11-15T03:07:43;19.03;;;14.17;;
11245;SDS011;59870;50.106;8.580;2022-11-15T03:10:45;18.30;;;14.50;;
11245;SDS011;59870;50.106;8.580;2022-11-15T03:16:32;18.43;;;14.10;;
11245;SDS011;59870;50.106;8.580;2022-11-15T03:19:31;14.30;;;12.90;;
11245;SDS011;59870;50.106;8.580;2022-11-15T03:22:24;13.70;;;12.20;;
11245;SDS011;59870;50.106;8.580;2022-11-15T03:25:16;14.30;;;11.80;;
11245;SDS011;59870;50.106;8.580;2022-11-15T03:28:06;14.47;;;12.33;;
11245;SDS011;59870;50.106;8.580;2022-11-15T03:30:57;12.00;;;10.83;;
11245;SDS011;59870;50.106;8.580;2022-11-15T03:33:44;13.07;;;11.83;;
11245;SDS011;59870;50.106;8.580;2022-11-15T03:36:30;12.90;;;11.63;;
11245;SDS011;59870;50.106;8.580;2022-11-15T03:39:19;12.23;;;11.13;;
11245;SDS011;59870;50.106;8.580;2022-11-15T03:42:19;14.17;;;12.30;;
11245;SDS011;59870;50.106;8.580;2022-11-15T03:48:35;12.87;;;11.53;;
11245;SDS011;59870;50.106;8.580;2022-11-15T03:51:28;13.30;;;12.13;;
11245;SDS011;59870;50.106;8.580;2022-11-15T03:54:15;14.87;;;12.00;;
11245;SDS011;59870;50.106;8.580;2022-11-15T03:57:01;16.57;;;12.87;;
11245;SDS011;59870;50.106;8.580;2022-11-15T03:59:48;12.20;;;11.13;;
11245;SDS011;59870;50.106;8.580;2022-11-15T04:02:33;21.37;;;12.97;;
11245;SDS011;59870;50.106;8.580;2022-11-15T04:05:20;18.47;;;11.97;;
11245;SDS011;59870;50.106;8.580;2022-11-15T04:08:06;15.97;;;12.17;;
11245;SDS011;59870;50.106;8.580;2022-11-15T04:10:53;16.77;;;12.93;;
11245;SDS011;59870;50.106;8.580;2022-11-15T04:13:39;12.23;;;11.13;;
11245;SDS011;59870;50.106;8.580;2022-11-15T04:16:25;12.17;;;10.97;;
11245;SDS011;59870;50.106;8.580;2022-11-15T04:19:11;13.37;;;11.57;;
11245;SDS011;59870;50.106;8.580;2022-11-15T04:22:16;11.77;;;10.67;;
11245;SDS011;59870;50.106;8.580;2022-11-15T04:25:20;13.93;;;12.50;;
11245;SDS011;59870;50.106;8.580;2022-11-15T04:28:11;13.30;;;11.70;;
11245;SDS011;59870;50.106;8.580;2022-11-15T04:30:58;12.20;;;10.93;;
11245;SDS011;59870;50.106;8.580;2022-11-15T04:33:44;11.90;;;10.90;;
11245;SDS011;59870;50.106;8.580;2022-11-15T04:36:30;14.67;;;13.20;;
11245;SDS011;59870;50.106;8.580;2022-11-15T04:39:35;13.40;;;12.20;;
11245;SDS011;59870;50.106;8.580;2022-11-15T04:42:21;12.70;;;11.60;;
11245;SDS011;59870;50.106;8.580;2022-11-15T04:45:06;11.03;;;10.20;;
11245;SDS011;59870;50.106;8.580;2022-11-15T04:47:53;12.70;;;10.50;;
11245;SDS011;59870;50.106;8.580;2022-11-15T04:50:39;10.80;;;9.87;;
11245;SDS011;59870;50.106;8.580;2022-11-15T04:53:25;11.33;;;10.33;;
11245;SDS011;59870;50.106;8.580;2022-11-15T04:56:11;12.07;;;10.87;;
11245;SDS011;59870;50.106;8.580;2022-11-15T04:58:57;10.33;;;9.43;;
11245;SDS011;59870;50.106;8.580;2022-11-15T05:01:43;11.27;;;10.27;;
11245;SDS011;59870;50.106;8.580;2022-11-15T05:04:30;10.90;;;9.83;;
11245;SDS011;59870;50.106;8.580;2022-11-15T05:07:15;11.60;;;10.60;;
11245;SDS011;59870;50.106;8.580;2022-11-15T05:10:02;11.57;;;10.67;;
11245;SDS011;59870;50.106;8.580;2022-11-15T05:12:48;10.40;;;9.50;;
11245;SDS011;59870;50.106;8.580;2022-11-15T05:15:34;11.53;;;10.63;;
11245;SDS011;59870;50.106;8.580;2022-11-15T05:18:20;12.23;;;9.93;;
11245;SDS011;59870;50.106;8.580;2022-11-15T05:21:12;12.37;;;11.00;;
11245;SDS011;59870;50.106;8.580;2022-11-15T05:23:59;12.23;;;10.30;;
11245;SDS011;59870;50.106;8.580;2022-11-15T05:26:46;11.60;;;10.53;;
11245;SDS011;59870;50.106;8.580;2022-11-15T05:29:32;11.53;;;10.50;;
11245;SDS011;59870;50.106;8.580;2022-11-15T05:32:18;10.03;;;9.33;;
11245;SDS011;59870;50.106;8.580;2022-11-15T05:35:04;10.97;;;10.13;;
11245;SDS011;59870;50.106;8.580;2022-11-15T05:37:55;13.27;;;9.23;;
11245;SDS011;59870;50.106;8.580;2022-11-15T05:40:41;11.00;;;10.00;;
11245;SDS011;59870;50.106;8.580;2022-11-15T05:43:28;11.33;;;10.33;;
11245;SDS011;59870;50.106;8.580;2022-11-15T05:46:18;9.90;;;9.00;;
11245;SDS011;59870;50.106;8.580;2022-11-15T05:49:05;9.87;;;9.13;;
11245;SDS011;59870;50.106;8.580;2022-11-15T05:51:54;10.03;;;9.23;;
11245;SDS011;59870;50.106;8.580;2022-11-15T05:54:41;11.00;;;10.10;;
11245;SDS011;59870;50.106;8.580;2022-11-15T05:57:28;11.30;;;10.40;;
11245;SDS011;59870;50.106;8.580;2022-11-15T06:00:14;10.90;;;9.97;;
11245;SDS011;59870;50.106;8.580;2022-11-15T06:03:00;11.17;;;10.13;;
11245;SDS011;59870;50.106;8.580;2022-11-15T06:05:46;12.80;;;11.60;;
11245;SDS011;59870;50.106;8.580;2022-11-15T06:08:32;14.00;;;12.67;;
11245;SDS011;59870;50.106;8.580;2022-11-15T06:11:18;15.63;;;14.13;;
11245;SDS011;59870;50.106;8.580;2022-11-15T06:14:03;16.40;;;14.70;;
11245;SDS011;59870;50.106;8.580;2022-11-15T06:16:49;13.93;;;12.60;;
11245;SDS011;59870;50.106;8.580;2022-11-15T06:19:35;16.17;;;14.47;;
11245;SDS011;59870;50.106;8.580;2022-11-15T06:22:21;17.10;;;15.27;;
11245;SDS011;59870;50.106;8.580;2022-11-15T06:25:07;16.67;;;13.43;;
11245;SDS011;59870;50.106;8.580;2022-11-15T06:27:54;14.13;;;13.00;;
11245;SDS011;59870;50.106;8.580;2022-11-15T06:30:41;13.37;;;11.90;;
11245;SDS011;59870;50.106;8.580;2022-11-15T06:33:27;14.57;;;12.10;;
11245;SDS011;59870;50.106;8.580;2022-11-15T06:36:13;16.27;;;14.53;;
11245;SDS011;59870;50.106;8.580;2022-11-15T06:39:03;19.90;;;16.10;;
11245;SDS011;59870;50.106;8.580;2022-11-15T06:41:49;19.43;;;16.60;;
11245;SDS011;59870;50.106;8.580;2022-11-15T06:44:35;19.50;;;15.67;;
11245;SDS011;59870;50.106;8.580;2022-11-15T06:47:21;16.53;;;14.97;;
11245;SDS011;59870;50.106;8.580;2022-11-15T06:50:07;17.30;;;15.47;;
11245;SDS011;59870;50.106;8.580;2022-11-15T06:52:53;16.47;;;14.17;;
11245;SDS011;59870;50.106;8.580;2022-11-15T06:55:40;17.53;;;14.40;;
11245;SDS011;59870;50.106;8.580;2022-11-15T06:58:26;16.07;;;14.23;;
11245;SDS011;59870;50.106;8.580;2022-11-15T07:01:12;14.57;;;13.07;;
11245;SDS011;59870;50.106;8.580;2022-11-15T07:03:58;14.30;;;12.97;;
11245;SDS011;59870;50.106;8.580;2022-11-15T07:06:46;14.80;;;13.33;;
11245;SDS011;59870;50.106;8.580;2022-11-15T07:09:33;14.80;;;13.27;;
11245;SDS011;59870;50.106;8.580;2022-11-15T07:12:19;14.47;;;13.17;;
11245;SDS011;59870;50.106;8.580;2022-11-15T07:15:05;14.23;;;12.90;;
11245;SDS011;59870;50.106;8.580;2022-11-15T07:17:51;13.50;;;12.10;;
11245;SDS011;59870;50.106;8.580;2022-11-15T07:20:37;16.63;;;12.20;;
11245;SDS011;59870;50.106;8.580;2022-11-15T07:23:24;12.80;;;11.80;;
11245;SDS011;59870;50.106;8.580;2022-11-15T07:26:10;13.40;;;12.20;;
11245;SDS011;59870;50.106;8.580;2022-11-15T07:28:57;16.20;;;14.60;;
11245;SDS011;59870;50.106;8.580;2022-11-15T07:31:43;24.40;;;18.53;;
11245;SDS011;59870;50.106;8.580;2022-11-15T07:34:29;19.77;;;17.67;;
11245;SDS011;59870;50.106;8.580;2022-11-15T07:37:14;17.30;;;15.60;;
11245;SDS011;59870;50.106;8.580;2022-11-15T07:40:02;15.40;;;13.80;;
11245;SDS011;59870;50.106;8.580;2022-11-15T07:42:48;15.23;;;13.27;;
11245;SDS011;59870;50.106;8.580;2022-11-15T07:45:42;15.57;;;14.13;;
11245;SDS011;59870;50.106;8.580;2022-11-15T07:48:29;14.40;;;13.03;;
11245;SDS011;59870;50.106;8.580;2022-11-15T07:51:28;14.83;;;13.43;;
11245;SDS011;59870;50.106;8.580;2022-11-15T07:54:14;17.63;;;15.67;;
11245;SDS011;59870;50.106;8.580;2022-11-15T07:57:00;17.80;;;14.63;;
11245;SDS011;59870;50.106;8.580;2022-11-15T07:59:52;14.60;;;13.20;;
11245;SDS011;59870;50.106;8.580;2022-11-15T08:02:38;14.20;;;12.80;;
11245;SDS011;59870;50.106;8.580;2022-11-15T08:05:24;12.57;;;11.67;;
11245;SDS011;59870;50.106;8.580;2022-11-15T08:08:10;13.27;;;12.13;;
11245;SDS011;59870;50.106;8.580;2022-11-15T08:10:59;13.63;;;12.53;;
11245;SDS011;59870;50.106;8.580;2022-11-15T08:13:46;11.87;;;10.87;;
11245;SDS011;59870;50.106;8.580;2022-11-15T08:16:32;14.30;;;12.83;;
11245;SDS011;59870;50.106;8.580;2022-11-15T08:19:18;12.50;;;11.50;;
11245;SDS011;59870;50.106;8.580;2022-11-15T08:22:04;15.33;;;12.23;;
11245;SDS011;59870;50.106;8.580;2022-11-15T08:24:51;12.10;;;11.30;;
11245;SDS011;59870;50.106;8.580;2022-11-15T08:27:37;13.80;;;12.70;;
11245;SDS011;59870;50.106;8.580;2022-11-15T08:30:23;14.90;;;13.47;;
11245;SDS011;59870;50.106;8.580;2022-11-15T08:33:10;14.10;;;12.87;;
11245;SDS011;59870;50.106;8.580;2022-11-15T08:36:00;14.67;;;13.37;;
11245;SDS011;59870;50.106;8.580;2022-11-15T08:38:47;15.87;;;14.47;;
11245;SDS011;59870;50.106;8.580;2022-11-15T08:41:34;14.53;;;12.77;;
11245;SDS011;59870;50.106;8.580;2022-11-15T08:44:22;14.70;;;13.23;;
11245;SDS011;59870;50.106;8.580;2022-11-15T08:47:10;13.53;;;12.33;;
11245;SDS011;59870;50.106;8.580;2022-11-15T08:49:57;11.07;;;10.20;;
11245;SDS011;59870;50.106;8.580;2022-11-15T08:52:44;12.63;;;11.67;;
11245;SDS011;59870;50.106;8.580;2022-11-15T08:55:29;12.70;;;10.90;;
11245;SDS011;59870;50.106;8.580;2022-11-15T08:58:15;12.23;;;11.23;;
11245;SDS011;59870;50.106;8.580;2022-11-15T09:01:02;12.23;;;11.33;;
11245;SDS011;59870;50.106;8.580;2022-11-15T09:03:48;11.23;;;10.23;;
11245;SDS011;59870;50.106;8.580;2022-11-15T09:06:34;11.27;;;10.27;;
11245;SDS011;59870;50.106;8.580;2022-11-15T09:09:26;11.97;;;10.77;;
11245;SDS011;59870;50.106;8.580;2022-11-15T09:12:12;11.83;;;10.93;;
11245;SDS011;59870;50.106;8.580;2022-11-15T09:14:58;11.93;;;10.87;;
11245;SDS011;59870;50.106;8.580;2022-11-15T09:17:44;12.40;;;11.60;;
11245;SDS011;59870;50.106;8.580;2022-11-15T09:20:30;12.00;;;11.00;;
11245;SDS011;59870;50.106;8.580;2022-11-15T09:23:16;12.77;;;11.57;;
11245;SDS011;59870;50.106;8.580;2022-11-15T09:26:03;12.17;;;11.37;;
11245;SDS011;59870;50.106;8.580;2022-11-15T09:28:50;11.93;;;11.10;;
11245;SDS011;59870;50.106;8.580;2022-11-15T09:31:35;11.87;;;11.00;;
11245;SDS011;59870;50.106;8.580;2022-11-15T09:34:22;12.67;;;11.57;;
11245;SDS011;59870;50.106;8.580;2022-11-15T09:37:07;11.87;;;11.10;;
11245;SDS011;59870;50.106;8.580;2022-11-15T09:39:53;11.87;;;10.87;;
11245;SDS011;59870;50.106;8.580;2022-11-15T09:42:45;11.77;;;10.77;;
11245;SDS011;59870;50.106;8.580;2022-11-15T09:48:54;11.47;;;10.77;;
11245;SDS011;59870;50.106;8.580;2022-11-15T09:51:37;12.37;;;11.20;;
11245;SDS011;59870;50.106;8.580;2022-11-15T09:54:23;11.53;;;10.77;;
11245;SDS011;59870;50.106;8.580;2022-11-15T09:57:32;12.20;;;11.07;;
11245;SDS011;59870;50.106;8.580;2022-11-15T10:00:19;12.33;;;11.33;;
11245;SDS011;59870;50.106;8.580;2022-11-15T10:05:45;11.93;;;10.93;;
11245;SDS011;59870;50.106;8.580;2022-11-15T10:10:47;10.47;;;9.67;;
11245;SDS011;59870;50.106;8.580;2022-11-15T10:13:43;10.27;;;9.57;;
11245;SDS011;59870;50.106;8.580;2022-11-15T10:16:27;10.10;;;9.50;;
11245;SDS011;59870;50.106;8.580;2022-11-15T10:19:23;9.73;;;9.03;;
11245;SDS011;59870;50.106;8.580;2022-11-15T10:22:16;10.13;;;9.27;;
11245;SDS011;59870;50.106;8.580;2022-11-15T10:24:48;10.50;;;9.77;;
11245;SDS011;59870;50.106;8.580;2022-11-15T10:27:19;10.23;;;9.03;;
11245;SDS011;59870;50.106;8.580;2022-11-15T10:29:48;9.83;;;9.03;;
11245;SDS011;59870;50.106;8.580;2022-11-15T10:32:17;9.57;;;8.70;;
11245;SDS011;59870;50.106;8.580;2022-11-15T10:34:47;9.83;;;8.97;;
11245;SDS011;59870;50.106;8.580;2022-11-15T10:37:20;9.20;;;8.70;;
11245;SDS011;59870;50.106;8.580;2022-11-15T10:40:02;10.50;;;9.80;;
11245;SDS011;59870;50.106;8.580;2022-11-15T10:42:41;10.07;;;9.47;;
11245;SDS011;59870;50.106;8.580;2022-11-15T10:45:22;9.67;;;8.77;;
11245;SDS011;59870;50.106;8.580;2022-11-15T10:48:18;11.43;;;9.50;;
11245;SDS011;59870;50.106;8.580;2022-11-15T10:50:45;10.97;;;10.00;;
11245;SDS011;59870;50.106;8.580;2022-11-15T10:53:17;10.80;;;10.10;;
11245;SDS011;59870;50.106;8.580;2022-11-15T10:56:11;10.73;;;9.83;;
11245;SDS011;59870;50.106;8.580;2022-11-15T10:58:43;9.37;;;8.87;;
11245;SDS011;59870;50.106;8.580;2022-11-15T11:01:17;10.07;;;9.17;;
11245;SDS011;59870;50.106;8.580;2022-11-15T11:04:00;10.40;;;9.33;;
11245;SDS011;59870;50.106;8.580;2022-11-15T11:06:52;9.77;;;9.00;;
11245;SDS011;59870;50.106;8.580;2022-11-15T11:09:38;9.37;;;8.67;;
11245;SDS011;59870;50.106;8.580;2022-11-15T11:12:11;9.73;;;8.93;;
11245;SDS011;59870;50.106;8.580;2022-11-15T11:14:39;9.80;;;9.00;;
11245;SDS011;59870;50.106;8.580;2022-11-15T11:17:11;9.50;;;8.57;;
11245;SDS011;59870;50.106;8.580;2022-11-15T11:20:04;10.13;;;9.03;;
11245;SDS011;59870;50.106;8.580;2022-11-15T11:25:45;9.20;;;8.40;;
11245;SDS011;59870;50.106;8.580;2022-11-15T11:31:13;11.27;;;8.63;;
11245;SDS011;59870;50.106;8.580;2022-11-15T11:36:48;9.33;;;8.73;;
11245;SDS011;59870;50.106;8.580;2022-11-15T11:45:25;9.73;;;8.77;;
11245;SDS011;59870;50.106;8.580;2022-11-15T11:48:08;8.70;;;7.93;;
11245;SDS011;59870;50.106;8.580;2022-11-15T11:50:41;9.73;;;8.63;;
11245;SDS011;59870;50.106;8.580;2022-11-15T11:53:35;8.60;;;8.00;;
11245;SDS011;59870;50.106;8.580;2022-11-15T11:56:12;8.80;;;8.17;;
11245;SDS011;59870;50.106;8.580;2022-11-15T11:58:57;8.17;;;7.67;;
11245;SDS011;59870;50.106;8.580;2022-11-15T12:01:37;7.77;;;7.17;;
11245;SDS011;59870;50.106;8.580;2022-11-15T12:04:14;7.90;;;7.40;;
11245;SDS011;59870;50.106;8.580;2022-11-15T12:07:01;8.13;;;7.63;;
11245;SDS011;59870;50.106;8.580;2022-11-15T12:09:53;8.13;;;7.40;;
11245;SDS011;59870;50.106;8.580;2022-11-15T12:12:34;7.77;;;7.27;;
11245;SDS011;59870;50.106;8.580;2022-11-15T12:17:36;8.23;;;7.73;;
11245;SDS011;59870;50.106;8.580;2022-11-15T12:20:13;8.40;;;7.90;;
11245;SDS011;59870;50.106;8.580;2022-11-15T12:22:43;7.63;;;7.13;;
11245;SDS011;59870;50.106;8.580;2022-11-15T12:25:43;8.00;;;7.20;;
11245;SDS011;59870;50.106;8.580;2022-11-15T12:30:52;7.60;;;6.90;;
11245;SDS011;59870;50.106;8.580;2022-11-15T12:33:46;7.90;;;7.30;;
11245;SDS011;59870;50.106;8.580;2022-11-15T12:38:58;7.70;;;7.20;;
11245;SDS011;59870;50.106;8.580;2022-11-15T12:41:28;8.17;;;7.37;;
11245;SDS011;59870;50.106;8.580;2022-11-15T12:43:57;8.00;;;7.40;;
11245;SDS011;59870;50.106;8.580;2022-11-15T12:59:51;14.10;;;12.53;;
11245;SDS011;59870;50.106;8.580;2022-11-15T13:02:22;9.97;;;9.17;;
11245;SDS011;59870;50.106;8.580;2022-11-15T13:04:53;8.60;;;8.03;;
11245;SDS011;59870;50.106;8.580;2022-11-15T13:07:57;8.90;;;8.10;;
11245;SDS011;59870;50.106;8.580;2022-11-15T13:17:42;7.87;;;7.47;;
11245;SDS011;59870;50.106;8.580;2022-11-15T13:22:42;9.03;;;8.33;;
11245;SDS011;59870;50.106;8.580;2022-11-15T13:27:47;7.77;;;7.27;;
11245;SDS011;59870;50.106;8.580;2022-11-15T13:30:22;7.37;;;6.90;;
11245;SDS011;59870;50.106;8.580;2022-11-15T13:32:54;8.37;;;7.87;;
11245;SDS011;59870;50.106;8.580;2022-11-15T13:35:25;8.50;;;8.10;;
11245;SDS011;59870;50.106;8.580;2022-11-15T13:37:55;8.63;;;8.13;;
11245;SDS011;59870;50.106;8.580;2022-11-15T13:40:29;8.23;;;7.53;;
11245;SDS011;59870;50.106;8.580;2022-11-15T13:46:03;7.90;;;7.50;;
11245;SDS011;59870;50.106;8.580;2022-11-15T13:48:37;7.70;;;7.10;;
11245;SDS011;59870;50.106;8.580;2022-11-15T13:51:07;7.93;;;7.43;;
11245;SDS011;59870;50.106;8.580;2022-11-15T13:53:48;7.50;;;7.00;;
11245;SDS011;59870;50.106;8.580;2022-11-15T13:56:25;8.07;;;7.57;;
11245;SDS011;59870;50.106;8.580;2022-11-15T13:58:55;7.50;;;7.10;;
11245;SDS011;59870;50.106;8.580;2022-11-15T14:01:23;8.53;;;7.93;;
11245;SDS011;59870;50.106;8.580;2022-11-15T14:03:55;9.10;;;7.37;;
11245;SDS011;59870;50.106;8.580;2022-11-15T14:06:25;7.50;;;7.00;;
11245;SDS011;59870;50.106;8.580;2022-11-15T14:09:00;6.87;;;6.47;;
11245;SDS011;59870;50.106;8.580;2022-11-15T14:11:37;7.83;;;6.67;;
11245;SDS011;59870;50.106;8.580;2022-11-15T14:14:15;7.23;;;6.67;;
11245;SDS011;59870;50.106;8.580;2022-11-15T14:16:46;7.47;;;7.07;;
11245;SDS011;59870;50.106;8.580;2022-11-15T14:25:04;8.47;;;7.87;;
11245;SDS011;59870;50.106;8.580;2022-11-15T14:27:42;9.37;;;8.53;;
11245;SDS011;59870;50.106;8.580;2022-11-15T14:30:12;10.10;;;9.30;;
11245;SDS011;59870;50.106;8.580;2022-11-15T14:32:46;10.10;;;9.30;;
11245;SDS011;59870;50.106;8.580;2022-11-15T14:35:17;10.03;;;9.43;;
11245;SDS011;59870;50.106;8.580;2022-11-15T14:37:47;8.60;;;8.00;;
11245;SDS011;59870;50.106;8.580;2022-11-15T14:40:20;8.50;;;7.90;;
11245;SDS011;59870;50.106;8.580;2022-11-15T14:42:49;8.90;;;8.40;;
11245;SDS011;59870;50.106;8.580;2022-11-15T14:45:17;8.20;;;7.57;;
11245;SDS011;59870;50.106;8.580;2022-11-15T14:47:47;7.70;;;7.23;;
11245;SDS011;59870;50.106;8.580;2022-11-15T14:50:15;9.10;;;8.57;;
11245;SDS011;59870;50.106;8.580;2022-11-15T14:52:45;8.53;;;7.83;;
11245;SDS011;59870;50.106;8.580;2022-11-15T14:55:17;8.30;;;7.80;;
11245;SDS011;59870;50.106;8.580;2022-11-15T14:57:50;9.37;;;8.67;;
11245;SDS011;59870;50.106;8.580;2022-11-15T15:00:19;8.93;;;8.40;;
11245;SDS011;59870;50.106;8.580;2022-11-15T15:02:47;8.53;;;7.83;;
11245;SDS011;59870;50.106;8.580;2022-11-15T15:05:19;9.80;;;9.00;;
11245;SDS011;59870;50.106;8.580;2022-11-15T15:07:50;8.93;;;8.30;;
11245;SDS011;59870;50.106;8.580;2022-11-15T15:10:20;7.47;;;6.97;;
11245;SDS011;59870;50.106;8.580;2022-11-15T15:13:10;8.13;;;7.50;;
11245;SDS011;59870;50.106;8.580;2022-11-15T15:15:46;8.00;;;7.60;;
11245;SDS011;59870;50.106;8.580;2022-11-15T15:18:15;8.47;;;7.93;;
11245;SDS011;59870;50.106;8.580;2022-11-15T15:20:43;8.93;;;8.33;;
11245;SDS011;59870;50.106;8.580;2022-11-15T15:23:16;9.13;;;8.63;;
11245;SDS011;59870;50.106;8.580;2022-11-15T15:25:46;9.73;;;7.53;;
11245;SDS011;59870;50.106;8.580;2022-11-15T15:28:16;8.07;;;7.57;;
11245;SDS011;59870;50.106;8.580;2022-11-15T15:30:43;7.50;;;7.00;;
11245;SDS011;59870;50.106;8.580;2022-11-15T15:33:10;8.60;;;8.10;;
11245;SDS011;59870;50.106;8.580;2022-11-15T15:35:38;9.53;;;8.90;;
11245;SDS011;59870;50.106;8.580;2022-11-15T15:38:06;8.80;;;8.30;;
11245;SDS011;59870;50.106;8.580;2022-11-15T15:40:35;9.40;;;8.80;;
11245;SDS011;59870;50.106;8.580;2022-11-15T15:43:02;9.57;;;8.93;;
11245;SDS011;59870;50.106;8.580;2022-11-15T15:45:30;10.97;;;10.00;;
11245;SDS011;59870;50.106;8.580;2022-11-15T15:47:58;9.87;;;9.07;;
11245;SDS011;59870;50.106;8.580;2022-11-15T15:50:26;12.50;;;11.40;;
11245;SDS011;59870;50.106;8.580;2022-11-15T15:52:56;12.40;;;11.33;;
11245;SDS011;59870;50.106;8.580;2022-11-15T15:55:25;11.70;;;10.67;;
11245;SDS011;59870;50.106;8.580;2022-11-15T15:57:53;11.73;;;10.80;;
11245;SDS011;59870;50.106;8.580;2022-11-15T16:00:22;10.43;;;9.47;;
11245;SDS011;59870;50.106;8.580;2022-11-15T16:02:51;9.57;;;8.87;;
11245;SDS011;59870;50.106;8.580;2022-11-15T16:05:19;7.93;;;7.47;;
11245;SDS011;59870;50.106;8.580;2022-11-15T16:07:47;8.70;;;8.10;;
11245;SDS011;59870;50.106;8.580;2022-11-15T16:12:52;8.07;;;7.47;;
11245;SDS011;59870;50.106;8.580;2022-11-15T16:15:21;6.87;;;6.47;;
11245;SDS011;59870;50.106;8.580;2022-11-15T16:17:56;8.10;;;7.50;;
11245;SDS011;59870;50.106;8.580;2022-11-15T16:23:01;7.97;;;7.47;;
11245;SDS011;59870;50.106;8.580;2022-11-15T16:25:45;7.43;;;6.93;;
11245;SDS011;59870;50.106;8.580;2022-11-15T16:31:07;7.60;;;7.10;;
11245;SDS011;59870;50.106;8.580;2022-11-15T16:33:39;7.70;;;7.17;;
11245;SDS011;59870;50.106;8.580;2022-11-15T16:36:14;7.50;;;7.00;;
11245;SDS011;59870;50.106;8.580;2022-11-15T16:38:56;7.13;;;6.70;;
11245;SDS011;59870;50.106;8.580;2022-11-15T16:41:24;7.10;;;6.70;;
11245;SDS011;59870;50.106;8.580;2022-11-15T16:43:52;12.00;;;11.10;;
11245;SDS011;59870;50.106;8.580;2022-11-15T16:46:24;8.77;;;8.20;;
11245;SDS011;59870;50.106;8.580;2022-11-15T16:48:53;8.30;;;7.67;;
11245;SDS011;59870;50.106;8.580;2022-11-15T16:51:21;8.27;;;7.63;;
11245;SDS011;59870;50.106;8.580;2022-11-15T16:53:49;7.90;;;7.30;;
11245;SDS011;59870;50.106;8.580;2022-11-15T16:56:26;8.07;;;7.57;;
11245;SDS011;59870;50.106;8.580;2022-11-15T16:58:55;8.17;;;7.47;;
11245;SDS011;59870;50.106;8.580;2022-11-15T17:01:27;8.63;;;7.93;;
11245;SDS011;59870;50.106;8.580;2022-11-15T17:03:57;8.60;;;7.97;;
11245;SDS011;59870;50.106;8.580;2022-11-15T17:06:25;8.83;;;8.07;;
11245;SDS011;59870;50.106;8.580;2022-11-15T17:08:53;8.20;;;7.50;;
11245;SDS011;59870;50.106;8.580;2022-11-15T17:11:21;8.57;;;7.83;;
11245;SDS011;59870;50.106;8.580;2022-11-15T17:13:48;9.70;;;8.93;;
11245;SDS011;59870;50.106;8.580;2022-11-15T17:16:16;10.60;;;9.70;;
11245;SDS011;59870;50.106;8.580;2022-11-15T17:18:44;11.43;;;10.33;;
11245;SDS011;59870;50.106;8.580;2022-11-15T17:21:17;10.03;;;9.13;;
11245;SDS011;59870;50.106;8.580;2022-11-15T17:23:48;10.70;;;9.80;;
11245;SDS011;59870;50.106;8.580;2022-11-15T17:26:16;16.30;;;14.70;;
11245;SDS011;59870;50.106;8.580;2022-11-15T17:28:56;18.10;;;16.40;;
11245;SDS011;59870;50.106;8.580;2022-11-15T17:31:24;21.97;;;19.57;;
11245;SDS011;59870;50.106;8.580;2022-11-15T17:33:52;22.43;;;20.03;;